createdAt,value
2023-05-18T00:01:34.675Z,7.90
2023-05-18T00:04:24.154Z,7.90
2023-05-18T00:07:11.731Z,7.90
2023-05-18T00:09:59.404Z,7.90
2023-05-18T00:12:47.618Z,7.80
2023-05-18T00:15:35.366Z,7.80
2023-05-18T00:18:26.759Z,7.80
2023-05-18T00:21:16.300Z,7.80
2023-05-18T00:24:03.775Z,7.70
2023-05-18T00:26:51.471Z,7.70
2023-05-18T00:29:39.332Z,7.70
2023-05-18T00:32:26.859Z,7.60
2023-05-18T00:35:15.787Z,7.50
2023-05-18T00:38:03.827Z,7.50
2023-05-18T00:40:51.645Z,7.50
2023-05-18T00:43:42.179Z,7.40
2023-05-18T00:46:30.383Z,7.30
2023-05-18T00:49:18.629Z,7.30
2023-05-18T00:52:08.051Z,7.20
2023-05-18T00:54:56.135Z,7.10
2023-05-18T00:57:45.625Z,7.00
2023-05-18T01:00:37.791Z,6.90
2023-05-18T01:03:26.449Z,6.90
2023-05-18T01:06:14.947Z,6.80
2023-05-18T01:09:07.037Z,6.70
2023-05-18T01:12:01.555Z,6.70
2023-05-18T01:14:54.005Z,6.60
2023-05-18T01:17:50.037Z,6.60
2023-05-18T01:20:45.971Z,6.50
2023-05-18T01:24:06.038Z,6.50
2023-05-18T01:26:57.887Z,6.40
2023-05-18T01:29:48.435Z,6.40
2023-05-18T01:32:42.676Z,6.40
2023-05-18T01:35:30.630Z,6.40
2023-05-18T01:38:21.154Z,6.40
2023-05-18T01:41:15.932Z,6.40
2023-05-18T01:44:09.828Z,6.40
2023-05-18T01:47:03.026Z,6.40
2023-05-18T01:49:57.962Z,6.40
2023-05-18T01:52:49.146Z,6.40
2023-05-18T01:55:39.858Z,6.40
2023-05-18T01:58:28.962Z,6.40
2023-05-18T02:01:20.364Z,6.50
2023-05-18T02:04:10.677Z,6.40
2023-05-18T02:06:58.637Z,6.40
2023-05-18T02:09:46.445Z,6.40
2023-05-18T02:12:34.087Z,6.40
2023-05-18T02:15:22.521Z,6.40
2023-05-18T02:18:12.033Z,6.40
2023-05-18T02:21:00.436Z,6.40
2023-05-18T02:23:48.002Z,6.40
2023-05-18T02:26:37.767Z,6.40
2023-05-18T02:29:25.414Z,6.40
2023-05-18T02:32:13.019Z,6.40
2023-05-18T02:35:02.574Z,6.40
2023-05-18T02:37:50.237Z,6.40
2023-05-18T02:40:37.905Z,6.40
2023-05-18T02:43:25.535Z,6.40
2023-05-18T02:46:13.247Z,6.40
2023-05-18T02:49:00.864Z,6.40
2023-05-18T02:51:50.532Z,6.40
2023-05-18T02:54:39.801Z,6.40
2023-05-18T02:57:34.992Z,6.40
2023-05-18T03:00:29.741Z,6.40
2023-05-18T03:03:17.899Z,6.40
2023-05-18T03:06:08.307Z,6.30
2023-05-18T03:08:58.888Z,6.30
2023-05-18T03:11:54.281Z,6.30
2023-05-18T03:14:41.767Z,6.30
2023-05-18T03:17:30.455Z,6.30
2023-05-18T03:20:18.256Z,6.30
2023-05-18T03:23:06.278Z,6.30
2023-05-18T03:25:56.904Z,6.30
2023-05-18T03:28:48.140Z,6.30
2023-05-18T03:31:37.177Z,6.30
2023-05-18T03:34:25.949Z,6.30
2023-05-18T03:37:13.475Z,6.40
2023-05-18T03:40:10.331Z,6.40
2023-05-18T03:43:00.005Z,6.40
2023-05-18T03:45:47.795Z,6.40
2023-05-18T03:48:35.362Z,6.50
2023-05-18T03:51:23.767Z,6.50
2023-05-18T03:54:11.484Z,6.60
2023-05-18T03:56:59.069Z,6.60
2023-05-18T03:59:48.088Z,6.60
2023-05-18T04:02:36.360Z,6.70
2023-05-18T04:05:24.525Z,6.70
2023-05-18T04:08:14.550Z,6.80
2023-05-18T04:11:02.491Z,6.90
2023-05-18T04:13:51.010Z,7.00
2023-05-18T04:16:40.490Z,7.00
2023-05-18T04:19:28.972Z,7.10
2023-05-18T04:22:18.724Z,7.20
2023-05-18T04:25:07.104Z,7.20
2023-05-18T04:27:55.237Z,7.20
2023-05-18T04:30:44.207Z,7.30
2023-05-18T04:33:34.240Z,7.30
2023-05-18T04:36:25.731Z,7.30
2023-05-18T04:39:13.506Z,7.30
2023-05-18T04:42:01.719Z,7.40
2023-05-18T04:44:52.301Z,7.40
2023-05-18T04:47:40.377Z,7.50
2023-05-18T04:50:29.667Z,7.60
2023-05-18T04:53:18.236Z,7.60
2023-05-18T04:56:06.902Z,7.70
2023-05-18T04:58:59.409Z,7.80
2023-05-18T05:01:49.758Z,7.80
2023-05-18T05:04:37.498Z,7.80
2023-05-18T05:07:26.527Z,7.80
2023-05-18T05:10:14.526Z,7.90
2023-05-18T05:13:02.306Z,7.90
2023-05-18T05:15:50.135Z,8.00
2023-05-18T05:18:37.842Z,8.10
2023-05-18T05:21:26.339Z,8.20
2023-05-18T05:24:15.375Z,8.20
2023-05-18T05:27:03.234Z,8.30
2023-05-18T05:29:51.223Z,8.40
2023-05-18T05:32:39.097Z,8.50
2023-05-18T05:35:27.498Z,8.50
2023-05-18T05:38:15.561Z,8.60
2023-05-18T05:41:05.028Z,8.60
2023-05-18T05:43:53.289Z,8.70
2023-05-18T05:46:40.935Z,8.80
2023-05-18T05:49:30.250Z,8.90
2023-05-18T05:52:18.436Z,9.00
2023-05-18T05:55:07.031Z,9.20
2023-05-18T05:57:55.899Z,9.30
2023-05-18T06:00:43.842Z,9.50
2023-05-18T06:03:35.157Z,9.60
2023-05-18T06:06:26.265Z,9.80
2023-05-18T06:09:13.993Z,9.90
2023-05-18T06:12:01.603Z,10.00
2023-05-18T06:14:52.904Z,10.00
2023-05-18T06:17:41.011Z,10.20
2023-05-18T06:20:29.213Z,10.40
2023-05-18T06:23:22.452Z,10.60
2023-05-18T06:26:30.417Z,10.60
2023-05-18T06:29:37.148Z,10.60
2023-05-18T06:32:49.362Z,10.50
2023-05-18T06:35:37.022Z,10.60
2023-05-18T06:38:24.481Z,10.80
2023-05-18T06:41:12.225Z,10.90
2023-05-18T06:44:01.726Z,11.00
2023-05-18T06:46:59.596Z,11.20
2023-05-18T06:49:51.274Z,11.30
2023-05-18T06:52:39.076Z,11.30
2023-05-18T06:55:27.432Z,11.40
2023-05-18T06:58:15.386Z,11.40
2023-05-18T07:01:03.715Z,11.30
2023-05-18T07:03:51.253Z,11.30
2023-05-18T07:06:40.096Z,11.30
2023-05-18T07:09:28.035Z,11.40
2023-05-18T07:12:15.397Z,11.60
2023-05-18T07:15:04.175Z,11.80
2023-05-18T07:17:52.088Z,12.00
2023-05-18T07:20:39.808Z,12.20
2023-05-18T07:23:28.817Z,12.40
2023-05-18T07:26:16.510Z,12.50
2023-05-18T07:29:04.084Z,12.80
2023-05-18T07:31:51.599Z,13.00
2023-05-18T07:34:39.211Z,12.80
2023-05-18T07:37:26.744Z,12.70
2023-05-18T07:40:15.764Z,12.60
2023-05-18T07:43:03.162Z,12.60
2023-05-18T07:45:50.876Z,12.50
2023-05-18T07:48:40.522Z,12.80
2023-05-18T07:51:29.851Z,12.80
2023-05-18T07:54:17.617Z,12.90
2023-05-18T07:57:06.715Z,12.90
2023-05-18T07:59:54.422Z,13.00
2023-05-18T08:02:42.054Z,13.10
2023-05-18T08:05:29.956Z,13.20
2023-05-18T08:08:18.831Z,13.30
2023-05-18T08:11:06.976Z,13.40
2023-05-18T08:13:56.145Z,13.60
2023-05-18T08:16:44.074Z,13.80
2023-05-18T08:19:31.745Z,13.80
2023-05-18T08:22:19.390Z,13.70
2023-05-18T08:25:07.306Z,13.80
2023-05-18T08:27:55.141Z,14.00
2023-05-18T08:30:44.259Z,14.30
2023-05-18T08:33:32.671Z,14.50
2023-05-18T08:36:20.615Z,14.70
2023-05-18T08:39:09.484Z,14.70
2023-05-18T08:42:02.165Z,14.50
2023-05-18T08:44:58.187Z,14.60
2023-05-18T08:47:48.994Z,14.70
2023-05-18T08:50:39.049Z,14.80
2023-05-18T08:53:27.535Z,14.90
2023-05-18T08:56:16.359Z,15.10
2023-05-18T08:59:08.193Z,15.60
2023-05-18T09:01:55.893Z,16.20
2023-05-18T09:04:45.690Z,16.50
2023-05-18T09:07:34.274Z,16.20
2023-05-18T09:10:22.823Z,15.70
2023-05-18T09:13:12.525Z,15.60
2023-05-18T09:16:00.068Z,15.60
2023-05-18T09:18:47.781Z,15.70
2023-05-18T09:21:36.738Z,15.50
2023-05-18T09:24:25.052Z,15.60
2023-05-18T09:27:13.306Z,15.70
2023-05-18T09:30:00.993Z,16.20
2023-05-18T09:32:49.045Z,16.30
2023-05-18T09:35:37.745Z,16.60
2023-05-18T09:38:28.111Z,16.90
2023-05-18T09:41:18.344Z,17.20
2023-05-18T09:44:09.465Z,17.00
2023-05-18T09:46:57.870Z,17.30
2023-05-18T09:49:45.575Z,17.10
2023-05-18T09:52:41.474Z,16.80
2023-05-18T09:55:30.947Z,17.00
2023-05-18T09:58:18.878Z,17.20
2023-05-18T10:01:06.997Z,16.90
2023-05-18T10:03:54.446Z,16.40
2023-05-18T10:06:50.584Z,16.40
2023-05-18T10:09:38.224Z,16.90
2023-05-18T10:12:27.026Z,17.40
2023-05-18T10:15:16.735Z,17.70
2023-05-18T10:18:08.704Z,18.30
2023-05-18T10:21:00.062Z,18.30
2023-05-18T10:23:49.357Z,17.90
2023-05-18T10:26:40.272Z,18.00
2023-05-18T10:29:30.523Z,18.40
2023-05-18T10:32:20.834Z,18.30
2023-05-18T10:35:14.020Z,18.10
2023-05-18T10:38:03.911Z,18.20
2023-05-18T10:40:53.646Z,18.40
2023-05-18T10:43:42.887Z,18.80
2023-05-18T10:46:31.983Z,19.40
2023-05-18T10:49:25.281Z,19.50
2023-05-18T10:52:13.741Z,19.20
2023-05-18T10:55:01.766Z,19.20
2023-05-18T10:57:53.621Z,18.60
2023-05-18T11:00:43.754Z,18.20
2023-05-18T11:03:34.235Z,17.70
2023-05-18T11:06:25.917Z,17.30
2023-05-18T11:09:24.831Z,17.00
2023-05-18T11:12:17.934Z,16.90
2023-05-18T11:15:07.058Z,17.20
2023-05-18T11:18:16.417Z,17.80
2023-05-18T11:21:05.856Z,18.60
2023-05-18T11:24:17.139Z,19.40
2023-05-18T11:27:13.288Z,20.00
2023-05-18T11:30:14.656Z,20.30
2023-05-18T11:33:10.655Z,20.20
2023-05-18T11:36:11.667Z,19.90
2023-05-18T11:39:06.833Z,19.50
2023-05-18T11:42:01.303Z,19.40
2023-05-18T11:44:54.456Z,19.70
2023-05-18T11:47:42.313Z,20.70
2023-05-18T11:50:31.946Z,20.60
2023-05-18T11:53:23.488Z,20.40
2023-05-18T11:56:13.114Z,19.70
2023-05-18T11:59:13.573Z,19.40
2023-05-18T12:02:02.934Z,19.70
2023-05-18T12:04:54.406Z,19.90
2023-05-18T12:07:42.774Z,20.00
2023-05-18T12:10:32.306Z,20.70
2023-05-18T12:13:20.254Z,21.00
2023-05-18T12:16:11.381Z,21.10
2023-05-18T12:18:59.194Z,21.40
2023-05-18T12:21:47.713Z,21.30
2023-05-18T12:24:35.006Z,21.30
2023-05-18T12:27:26.581Z,21.80
2023-05-18T12:30:18.029Z,21.80
2023-05-18T12:33:07.102Z,21.70
2023-05-18T12:35:56.339Z,21.30
2023-05-18T12:38:43.873Z,21.30
2023-05-18T12:41:31.811Z,21.50
2023-05-18T12:44:20.583Z,21.50
2023-05-18T12:47:08.587Z,21.80
2023-05-18T12:49:56.516Z,21.70
2023-05-18T12:52:44.042Z,21.20
2023-05-18T12:55:32.457Z,21.30
2023-05-18T12:58:22.232Z,21.50
2023-05-18T13:01:12.139Z,21.60
2023-05-18T13:04:00.507Z,21.70
2023-05-18T13:06:48.677Z,21.30
2023-05-18T13:09:36.478Z,21.00
2023-05-18T13:12:37.437Z,21.30
2023-05-18T13:15:25.461Z,21.70
2023-05-18T13:18:14.563Z,21.90
2023-05-18T13:21:02.305Z,21.70
2023-05-18T13:23:49.948Z,21.50
2023-05-18T13:26:37.532Z,21.60
2023-05-18T13:29:24.856Z,22.10
2023-05-18T13:32:12.389Z,22.40
2023-05-18T13:35:01.320Z,22.60
2023-05-18T13:37:50.358Z,22.60
2023-05-18T13:40:39.568Z,22.80
2023-05-18T13:43:27.120Z,23.00
2023-05-18T13:46:14.737Z,23.30
2023-05-18T13:49:02.503Z,23.40
2023-05-18T13:51:51.609Z,23.60
2023-05-18T13:54:39.770Z,24.00
2023-05-18T13:57:27.308Z,24.10
2023-05-18T14:00:17.136Z,24.00
2023-05-18T14:03:06.430Z,24.10
2023-05-18T14:05:53.950Z,23.70
2023-05-18T14:08:42.840Z,23.20
2023-05-18T14:11:34.668Z,23.20
2023-05-18T14:14:22.383Z,23.40
2023-05-18T14:17:11.414Z,23.80
2023-05-18T14:19:59.390Z,24.00
2023-05-18T14:22:47.076Z,23.90
2023-05-18T14:25:37.069Z,22.80
2023-05-18T14:28:24.862Z,22.10
2023-05-18T14:31:12.667Z,22.20
2023-05-18T14:34:00.559Z,22.60
2023-05-18T14:36:48.295Z,23.30
2023-05-18T14:39:35.920Z,23.90
2023-05-18T14:42:25.279Z,23.60
2023-05-18T14:45:13.184Z,23.20
2023-05-18T14:48:00.942Z,23.00
2023-05-18T14:50:48.667Z,22.90
2023-05-18T14:53:36.466Z,22.90
2023-05-18T14:56:24.259Z,22.90
2023-05-18T14:59:13.265Z,23.20
2023-05-18T15:02:00.971Z,22.90
2023-05-18T15:04:48.865Z,23.20
2023-05-18T15:07:36.360Z,23.10
2023-05-18T15:10:24.324Z,22.50
2023-05-18T15:13:12.520Z,22.50
2023-05-18T15:16:01.998Z,22.50
2023-05-18T15:18:49.804Z,22.80
2023-05-18T15:21:37.661Z,22.60
2023-05-18T15:24:26.287Z,22.10
2023-05-18T15:27:13.873Z,21.40
2023-05-18T15:30:01.615Z,20.90
2023-05-18T15:32:50.542Z,20.70
2023-05-18T15:35:39.445Z,21.10
2023-05-18T15:38:28.963Z,21.70
2023-05-18T15:41:17.405Z,22.50
2023-05-18T15:44:04.934Z,23.50
2023-05-18T15:46:52.407Z,24.20
2023-05-18T15:49:41.525Z,24.80
2023-05-18T15:52:29.523Z,24.90
2023-05-18T15:55:17.634Z,24.40
2023-05-18T15:58:05.221Z,23.70
2023-05-18T16:00:52.856Z,23.90
2023-05-18T16:03:40.526Z,24.20
2023-05-18T16:06:29.780Z,24.70
2023-05-18T16:09:17.589Z,25.20
2023-05-18T16:12:05.288Z,25.90
2023-05-18T16:14:52.572Z,26.00
2023-05-18T16:17:40.168Z,26.10
2023-05-18T16:20:27.919Z,25.90
2023-05-18T16:23:17.254Z,25.70
2023-05-18T16:26:05.725Z,25.50
2023-05-18T16:28:53.698Z,25.10
2023-05-18T16:31:41.490Z,24.30
2023-05-18T16:34:29.216Z,23.80
2023-05-18T16:37:16.881Z,23.30
2023-05-18T16:40:07.209Z,22.50
2023-05-18T16:42:54.728Z,22.00
2023-05-18T16:45:42.528Z,21.90
2023-05-18T16:48:30.239Z,21.30
2023-05-18T16:51:18.008Z,20.80
2023-05-18T16:54:06.957Z,20.60
2023-05-18T16:56:55.958Z,20.90
2023-05-18T16:59:43.845Z,21.20
2023-05-18T17:02:31.555Z,21.50
2023-05-18T17:05:21.751Z,21.70
2023-05-18T17:08:10.659Z,21.70
2023-05-18T17:10:58.311Z,21.70
2023-05-18T17:13:47.186Z,21.60
2023-05-18T17:16:40.224Z,21.60
2023-05-18T17:19:28.270Z,21.70
2023-05-18T17:22:15.914Z,21.90
2023-05-18T17:25:03.381Z,21.70
2023-05-18T17:27:51.160Z,21.50
2023-05-18T17:30:40.889Z,21.50
2023-05-18T17:33:28.338Z,21.30
2023-05-18T17:36:17.202Z,21.10
2023-05-18T17:39:05.258Z,21.00
2023-05-18T17:41:54.462Z,21.00
2023-05-18T17:44:42.348Z,20.90
2023-05-18T17:47:31.334Z,20.70
2023-05-18T17:50:19.275Z,20.10
2023-05-18T17:53:07.040Z,19.60
2023-05-18T17:55:54.565Z,18.90
2023-05-18T17:58:42.375Z,18.30
2023-05-18T18:01:30.245Z,17.80
2023-05-18T18:04:19.174Z,17.30
2023-05-18T18:07:07.287Z,17.00
2023-05-18T18:09:55.036Z,16.70
2023-05-18T18:12:43.912Z,16.40
2023-05-18T18:15:31.915Z,16.10
2023-05-18T18:18:19.606Z,15.90
2023-05-18T18:21:08.763Z,15.70
2023-05-18T18:23:56.558Z,15.50
2023-05-18T18:26:44.224Z,15.30
2023-05-18T18:29:33.375Z,15.20
2023-05-18T18:32:21.061Z,15.00
2023-05-18T18:35:09.200Z,14.80
2023-05-18T18:37:57.981Z,14.70
2023-05-18T18:40:45.662Z,14.50
2023-05-18T18:43:35.172Z,14.30
2023-05-18T18:46:22.698Z,14.20
2023-05-18T18:49:10.025Z,14.10
2023-05-18T18:51:58.947Z,13.90
2023-05-18T18:54:48.475Z,13.80
2023-05-18T18:57:36.295Z,13.70
2023-05-18T19:00:23.875Z,13.50
2023-05-18T19:03:14.510Z,13.40
2023-05-18T19:06:02.441Z,13.30
2023-05-18T19:08:52.152Z,13.20
2023-05-18T19:11:41.334Z,13.10
2023-05-18T19:14:29.222Z,13.00
2023-05-18T19:17:17.405Z,12.80
2023-05-18T19:20:07.515Z,12.70
2023-05-18T19:22:55.442Z,12.60
2023-05-18T19:25:43.371Z,12.50
2023-05-18T19:28:32.545Z,12.30
2023-05-18T19:31:20.222Z,12.20
2023-05-18T19:34:08.005Z,12.10
2023-05-18T19:36:55.537Z,12.00
2023-05-18T19:39:42.862Z,11.80
2023-05-18T19:42:30.311Z,11.70
2023-05-18T19:45:19.609Z,11.70
2023-05-18T19:48:07.838Z,11.60
2023-05-18T19:50:55.303Z,11.50
2023-05-18T19:53:43.471Z,11.40
2023-05-18T19:56:31.136Z,11.30
2023-05-18T19:59:18.990Z,11.20
2023-05-18T20:02:08.344Z,11.10
2023-05-18T20:04:55.795Z,11.10
2023-05-18T20:07:43.166Z,10.90
2023-05-18T20:10:30.964Z,10.90
2023-05-18T20:13:18.578Z,10.80
2023-05-18T20:16:06.387Z,10.70
2023-05-18T20:18:55.685Z,10.60
2023-05-18T20:21:43.595Z,10.50
2023-05-18T20:24:31.198Z,10.40
2023-05-18T20:27:19.035Z,10.30
2023-05-18T20:30:08.382Z,10.30
2023-05-18T20:32:58.786Z,10.20
2023-05-18T20:35:48.337Z,10.10
2023-05-18T20:38:36.316Z,10.00
2023-05-18T20:41:23.824Z,10.00
2023-05-18T20:44:11.586Z,9.90
2023-05-18T20:47:01.177Z,9.90
2023-05-18T20:49:48.813Z,9.80
2023-05-18T20:52:37.915Z,9.70
2023-05-18T20:55:25.178Z,9.70
2023-05-18T20:58:12.703Z,9.70
2023-05-18T21:01:06.883Z,9.60
2023-05-18T21:03:57.775Z,9.50
2023-05-18T21:06:45.886Z,9.50
2023-05-18T21:09:34.780Z,9.50
2023-05-18T21:12:22.183Z,9.40
2023-05-18T21:15:10.375Z,9.40
2023-05-18T21:17:58.297Z,9.30
2023-05-18T21:20:46.179Z,9.30
2023-05-18T21:23:33.593Z,9.30
2023-05-18T21:26:23.336Z,9.30
2023-05-18T21:29:10.718Z,9.30
2023-05-18T21:31:58.540Z,9.30
2023-05-18T21:34:45.981Z,9.30
2023-05-18T21:37:33.729Z,9.30
2023-05-18T21:40:21.217Z,9.30
2023-05-18T21:43:10.107Z,9.30
2023-05-18T21:45:58.001Z,9.30
2023-05-18T21:48:46.034Z,9.30
2023-05-18T21:51:33.852Z,9.30
2023-05-18T21:54:21.653Z,9.30
2023-05-18T21:57:09.665Z,9.30
2023-05-18T21:59:58.832Z,9.30
2023-05-18T22:02:46.816Z,9.30
2023-05-18T22:05:34.554Z,9.30
2023-05-18T22:08:22.045Z,9.30
2023-05-18T22:11:09.802Z,9.40
2023-05-18T22:13:57.645Z,9.40
2023-05-18T22:16:46.903Z,9.40
2023-05-18T22:19:34.515Z,9.40
2023-05-18T22:22:30.341Z,9.40
2023-05-18T22:25:19.110Z,9.40
2023-05-18T22:28:06.818Z,9.40
2023-05-18T22:30:54.654Z,9.40
2023-05-18T22:33:43.731Z,9.40
2023-05-18T22:36:32.262Z,9.40
2023-05-18T22:39:19.943Z,9.40
2023-05-18T22:42:08.112Z,9.40
2023-05-18T22:44:55.831Z,9.30
2023-05-18T22:47:45.259Z,9.30
2023-05-18T22:50:35.070Z,9.30
2023-05-18T22:53:22.984Z,9.30
2023-05-18T22:56:10.872Z,9.30
2023-05-18T22:58:58.250Z,9.30
2023-05-18T23:01:45.786Z,9.30
2023-05-18T23:04:34.854Z,9.30
2023-05-18T23:07:24.843Z,9.30
2023-05-18T23:10:13.789Z,9.30
2023-05-18T23:13:01.386Z,9.30
2023-05-18T23:15:49.413Z,9.30
2023-05-18T23:18:38.792Z,9.30
2023-05-18T23:21:26.574Z,9.30
2023-05-18T23:24:16.164Z,9.20
2023-05-18T23:27:03.885Z,9.20
2023-05-18T23:29:52.988Z,9.20
2023-05-18T23:32:41.415Z,9.20
2023-05-18T23:35:29.950Z,9.20
2023-05-18T23:38:21.970Z,9.20
2023-05-18T23:41:11.785Z,9.20
2023-05-18T23:44:00.103Z,9.20
2023-05-18T23:46:47.971Z,9.20
2023-05-18T23:49:36.294Z,9.20
2023-05-18T23:52:28.005Z,9.20
2023-05-18T23:55:16.005Z,9.20
2023-05-18T23:58:06.260Z,9.20
